BAW821 EKCH-EGLL
Flight info
| Callsign | BAW821 |
|---|---|
| Flight time | N/A |
| Altitude | 36000 |
| Route | LANGO2A LANGO DCT RAXLU DCT JUIST DCT ABNED L980 LOGAN LOGAN2H |
| Aircraft | A320/M-SDE3FGIJ1KRWXY/SB1 |
Departure
| Time | 2026-05-07 19:05 |
|---|---|
| Airport | Copenhagen Kastrup Airport (EKCH) |
Arrival
| Time | N/A |
|---|---|
| Airport | London Heathrow Airport (EGLL) |
| Time | Latitude | Longitude | Altitude | Speed | Heading |
|---|---|---|---|---|---|
| 2026-05-07 17:44 | 55.62699 | 12.65079 | 24 ft | 0 kts | 288° |
| 2026-05-07 18:53 | 55.62693 | 12.65111 | 24 ft | 4 kts | 289° |
| 2026-05-07 18:53 | 55.62687 | 12.65145 | 24 ft | 4 kts | 289° |
| 2026-05-07 18:53 | 55.62678 | 12.65190 | 26 ft | 4 kts | 291° |
| 2026-05-07 18:53 | 55.62668 | 12.65235 | 24 ft | 4 kts | 293° |
| 2026-05-07 18:54 | 55.62658 | 12.65273 | 24 ft | 4 kts | 299° |
| 2026-05-07 18:54 | 55.62642 | 12.65309 | 25 ft | 4 kts | 332° |
| 2026-05-07 18:54 | 55.62620 | 12.65320 | 24 ft | 3 kts | 359° |
| 2026-05-07 18:54 | 55.62603 | 12.65320 | 24 ft | 0 kts | 359° |
| 2026-05-07 18:58 | 55.62607 | 12.65320 | 26 ft | 3 kts | 359° |
| 2026-05-07 18:58 | 55.62654 | 12.65288 | 25 ft | 9 kts | 307° |
| 2026-05-07 18:58 | 55.62631 | 12.65182 | 24 ft | 11 kts | 203° |
| 2026-05-07 18:58 | 55.62542 | 12.65183 | 26 ft | 14 kts | 179° |
| 2026-05-07 18:59 | 55.62434 | 12.65200 | 25 ft | 17 kts | 175° |
| 2026-05-07 18:59 | 55.62330 | 12.65205 | 24 ft | 9 kts | 178° |
| 2026-05-07 18:59 | 55.62261 | 12.65195 | 24 ft | 11 kts | 179° |
| 2026-05-07 18:59 | 55.62241 | 12.65192 | 24 ft | 1 kts | 209° |
| 2026-05-07 19:00 | 55.62245 | 12.65169 | 26 ft | 5 kts | 285° |
| 2026-05-07 19:00 | 55.62266 | 12.65105 | 25 ft | 7 kts | 303° |
| 2026-05-07 19:00 | 55.62300 | 12.65014 | 24 ft | 10 kts | 303° |
| 2026-05-07 19:00 | 55.62345 | 12.64892 | 26 ft | 13 kts | 303° |
| 2026-05-07 19:01 | 55.62333 | 12.64732 | 24 ft | 15 kts | 246° |
| 2026-05-07 19:01 | 55.62295 | 12.64580 | 24 ft | 8 kts | 246° |
| 2026-05-07 19:01 | 55.62291 | 12.64565 | 23 ft | 0 kts | 246° |
| 2026-05-07 19:01 | 55.62287 | 12.64547 | 24 ft | 5 kts | 246° |
| 2026-05-07 19:02 | 55.62258 | 12.64431 | 22 ft | 14 kts | 246° |
| 2026-05-07 19:02 | 55.62174 | 12.64322 | 23 ft | 16 kts | 205° |
| 2026-05-07 19:02 | 55.62065 | 12.64231 | 26 ft | 18 kts | 205° |
| 2026-05-07 19:02 | 55.61960 | 12.64144 | 25 ft | 14 kts | 205° |
| 2026-05-07 19:03 | 55.61859 | 12.64068 | 24 ft | 17 kts | 188° |
| 2026-05-07 19:03 | 55.61758 | 12.64080 | 24 ft | 8 kts | 176° |
| 2026-05-07 19:03 | 55.61695 | 12.64088 | 29 ft | 10 kts | 175° |
| 2026-05-07 19:03 | 55.61630 | 12.64075 | 27 ft | 10 kts | 214° |
| 2026-05-07 19:04 | 55.61624 | 12.64065 | 27 ft | 0 kts | 220° |
| 2026-05-07 19:04 | 55.61623 | 12.64064 | 27 ft | 1 kts | 220° |
| 2026-05-07 19:04 | 55.61515 | 12.63900 | 29 ft | 55 kts | 221° |
| 2026-05-07 19:04 | 55.61060 | 12.63195 | 27 ft | 116 kts | 221° |
| 2026-05-07 19:05 | 55.60328 | 12.62071 | 42 ft | 160 kts | 220° |
| 2026-05-07 19:05 | 55.59481 | 12.60818 | 673 ft | 157 kts | 220° |
| 2026-05-07 19:05 | 55.58664 | 12.59540 | 1288 ft | 161 kts | 221° |
| 2026-05-07 19:05 | 55.57781 | 12.58122 | 1620 ft | 181 kts | 222° |
| 2026-05-07 19:06 | 55.56809 | 12.56532 | 1965 ft | 200 kts | 227° |
| 2026-05-07 19:06 | 55.55086 | 12.51887 | 2775 ft | 248 kts | 240° |
| 2026-05-07 19:06 | 55.54479 | 12.50099 | 3341 ft | 253 kts | 241° |
| 2026-05-07 19:07 | 55.53580 | 12.47433 | 4221 ft | 259 kts | 241° |
| 2026-05-07 19:07 | 55.52621 | 12.44615 | 4799 ft | 268 kts | 240° |
| 2026-05-07 19:07 | 55.51657 | 12.41816 | 4964 ft | 272 kts | 240° |
| 2026-05-07 19:07 | 55.50660 | 12.38949 | 5394 ft | 276 kts | 239° |
| 2026-05-07 19:08 | 55.49647 | 12.36060 | 6357 ft | 278 kts | 239° |
| 2026-05-07 19:08 | 55.48620 | 12.33141 | 7237 ft | 282 kts | 238° |
| 2026-05-07 19:08 | 55.47574 | 12.30170 | 8089 ft | 287 kts | 238° |
| 2026-05-07 19:08 | 55.46516 | 12.27162 | 8915 ft | 291 kts | 238° |
| 2026-05-07 19:09 | 55.45437 | 12.24104 | 9720 ft | 296 kts | 238° |
| 2026-05-07 19:09 | 55.44336 | 12.20994 | 10391 ft | 306 kts | 238° |
| 2026-05-07 19:09 | 55.43164 | 12.17693 | 10638 ft | 329 kts | 238° |
| 2026-05-07 19:09 | 55.41922 | 12.14195 | 11119 ft | 342 kts | 238° |
| 2026-05-07 19:10 | 55.40287 | 12.09590 | 12019 ft | 347 kts | 238° |
| 2026-05-07 19:10 | 55.39007 | 12.05986 | 12747 ft | 349 kts | 238° |
| 2026-05-07 19:10 | 55.37716 | 12.02354 | 13448 ft | 351 kts | 238° |
| 2026-05-07 19:10 | 55.36416 | 11.98708 | 14146 ft | 353 kts | 238° |
| 2026-05-07 19:11 | 55.35107 | 11.95044 | 14822 ft | 355 kts | 238° |
| 2026-05-07 19:11 | 55.33785 | 11.91348 | 15472 ft | 358 kts | 238° |
| 2026-05-07 19:11 | 55.32453 | 11.87633 | 16104 ft | 360 kts | 238° |
| 2026-05-07 19:11 | 55.31115 | 11.83905 | 16697 ft | 362 kts | 238° |
| 2026-05-07 19:12 | 55.30220 | 11.81416 | 17097 ft | 364 kts | 238° |
| 2026-05-07 19:12 | 55.28863 | 11.77642 | 17692 ft | 367 kts | 238° |
| 2026-05-07 19:12 | 55.27495 | 11.73848 | 18268 ft | 369 kts | 238° |
| 2026-05-07 19:12 | 55.25662 | 11.68774 | 19045 ft | 373 kts | 238° |
| 2026-05-07 19:13 | 55.24718 | 11.66170 | 19438 ft | 375 kts | 238° |
| 2026-05-07 19:13 | 55.23301 | 11.62300 | 20000 ft | 378 kts | 238° |
| 2026-05-07 19:13 | 55.21863 | 11.58413 | 20529 ft | 382 kts | 238° |
| 2026-05-07 19:13 | 55.20428 | 11.54549 | 21015 ft | 385 kts | 238° |
| 2026-05-07 19:14 | 55.18961 | 11.50601 | 21511 ft | 388 kts | 238° |
| 2026-05-07 19:14 | 55.17483 | 11.46623 | 22004 ft | 391 kts | 238° |
| 2026-05-07 19:14 | 55.15997 | 11.42627 | 22461 ft | 393 kts | 238° |
| 2026-05-07 19:14 | 55.14498 | 11.38596 | 22904 ft | 396 kts | 238° |
| 2026-05-07 19:15 | 55.12988 | 11.34547 | 23346 ft | 399 kts | 238° |
| 2026-05-07 19:15 | 55.11462 | 11.30458 | 23773 ft | 402 kts | 238° |
| 2026-05-07 19:15 | 55.09926 | 11.26348 | 24197 ft | 405 kts | 237° |
| 2026-05-07 19:15 | 55.08379 | 11.22213 | 24623 ft | 408 kts | 237° |
| 2026-05-07 19:16 | 55.06817 | 11.18047 | 25031 ft | 411 kts | 237° |
| 2026-05-07 19:16 | 55.05266 | 11.13916 | 25425 ft | 414 kts | 237° |
| 2026-05-07 19:16 | 55.03680 | 11.09704 | 25826 ft | 416 kts | 237° |
| 2026-05-07 19:16 | 55.02085 | 11.05478 | 26201 ft | 418 kts | 237° |
| 2026-05-07 19:17 | 55.00477 | 11.01231 | 26569 ft | 421 kts | 237° |
| 2026-05-07 19:17 | 54.98857 | 10.96953 | 26937 ft | 423 kts | 237° |
| 2026-05-07 19:17 | 54.97248 | 10.92709 | 27298 ft | 426 kts | 237° |
| 2026-05-07 19:17 | 54.95592 | 10.88340 | 27662 ft | 428 kts | 237° |
| 2026-05-07 19:18 | 54.93967 | 10.84059 | 28022 ft | 431 kts | 237° |
| 2026-05-07 19:18 | 54.92296 | 10.79719 | 28381 ft | 433 kts | 236° |
| 2026-05-07 19:18 | 54.90603 | 10.75380 | 28724 ft | 436 kts | 236° |
| 2026-05-07 19:18 | 54.88885 | 10.71020 | 29067 ft | 438 kts | 236° |
| 2026-05-07 19:19 | 54.87156 | 10.66648 | 29395 ft | 440 kts | 236° |
| 2026-05-07 19:19 | 54.85413 | 10.62252 | 29716 ft | 442 kts | 236° |
| 2026-05-07 19:19 | 54.83666 | 10.57842 | 30035 ft | 445 kts | 236° |
| 2026-05-07 19:19 | 54.81910 | 10.53411 | 30348 ft | 447 kts | 236° |
| 2026-05-07 19:20 | 54.80148 | 10.48965 | 30745 ft | 447 kts | 236° |
| 2026-05-07 19:20 | 54.78389 | 10.44518 | 31173 ft | 446 kts | 236° |
| 2026-05-07 19:20 | 54.76634 | 10.40088 | 31590 ft | 446 kts | 236° |
| 2026-05-07 19:20 | 54.74873 | 10.35652 | 31986 ft | 446 kts | 236° |
| 2026-05-07 19:21 | 54.73111 | 10.31231 | 32396 ft | 446 kts | 236° |
| 2026-05-07 19:21 | 54.71385 | 10.26779 | 32794 ft | 446 kts | 239° |
| 2026-05-07 19:21 | 54.69868 | 10.22097 | 33183 ft | 446 kts | 241° |
| 2026-05-07 19:21 | 54.68361 | 10.17406 | 33568 ft | 446 kts | 241° |
| 2026-05-07 19:22 | 54.66856 | 10.12722 | 33966 ft | 446 kts | 241° |
| 2026-05-07 19:22 | 54.65367 | 10.08102 | 34333 ft | 446 kts | 241° |
| 2026-05-07 19:22 | 54.63855 | 10.03428 | 34715 ft | 445 kts | 241° |
| 2026-05-07 19:22 | 54.62346 | 9.98773 | 35104 ft | 444 kts | 241° |
| 2026-05-07 19:23 | 54.60840 | 9.94131 | 35461 ft | 443 kts | 241° |
| 2026-05-07 19:23 | 54.59329 | 9.89484 | 35796 ft | 443 kts | 240° |
| 2026-05-07 19:23 | 54.57819 | 9.84854 | 36080 ft | 444 kts | 240° |
| 2026-05-07 19:23 | 54.56299 | 9.80207 | 36151 ft | 446 kts | 240° |
| 2026-05-07 19:24 | 54.53249 | 9.70900 | 36146 ft | 447 kts | 240° |
| 2026-05-07 19:24 | 54.50180 | 9.61584 | 36130 ft | 446 kts | 240° |
| 2026-05-07 19:25 | 54.47116 | 9.52299 | 36130 ft | 446 kts | 240° |
| 2026-05-07 19:25 | 54.44050 | 9.43022 | 36132 ft | 446 kts | 240° |
| 2026-05-07 19:26 | 54.40988 | 9.33825 | 36132 ft | 446 kts | 240° |
| 2026-05-07 19:26 | 54.37893 | 9.24585 | 36127 ft | 447 kts | 240° |
| 2026-05-07 19:27 | 54.34792 | 9.15338 | 36127 ft | 447 kts | 240° |
| 2026-05-07 19:27 | 54.31687 | 9.06095 | 36131 ft | 447 kts | 240° |
| 2026-05-07 19:28 | 54.28572 | 8.96878 | 36142 ft | 447 kts | 240° |
| 2026-05-07 19:28 | 54.25449 | 8.87660 | 36144 ft | 447 kts | 239° |
| 2026-05-07 19:29 | 54.22316 | 8.78455 | 36136 ft | 448 kts | 239° |
| 2026-05-07 19:29 | 54.19188 | 8.69315 | 36127 ft | 449 kts | 239° |
| 2026-05-07 19:30 | 54.16040 | 8.60116 | 36124 ft | 449 kts | 239° |
| 2026-05-07 19:30 | 54.12873 | 8.50897 | 36125 ft | 450 kts | 239° |
| 2026-05-07 19:31 | 54.09695 | 8.41709 | 36116 ft | 450 kts | 239° |
| 2026-05-07 19:31 | 54.06509 | 8.32538 | 36116 ft | 450 kts | 239° |
| 2026-05-07 19:32 | 54.03314 | 8.23357 | 36111 ft | 451 kts | 239° |
| 2026-05-07 19:32 | 54.00107 | 8.14176 | 36115 ft | 451 kts | 239° |
| 2026-05-07 19:33 | 53.96896 | 8.05013 | 36118 ft | 451 kts | 239° |
| 2026-05-07 19:33 | 53.93702 | 7.95921 | 36114 ft | 451 kts | 239° |
| 2026-05-07 19:34 | 53.90468 | 7.86769 | 36116 ft | 452 kts | 238° |
| 2026-05-07 19:34 | 53.87228 | 7.77632 | 36114 ft | 452 kts | 238° |
| 2026-05-07 19:35 | 53.83982 | 7.68508 | 36122 ft | 452 kts | 238° |
| 2026-05-07 19:35 | 53.80721 | 7.59399 | 36117 ft | 452 kts | 238° |
| 2026-05-07 19:36 | 53.77482 | 7.50361 | 36120 ft | 452 kts | 238° |
| 2026-05-07 19:36 | 53.74218 | 7.41265 | 36126 ft | 452 kts | 238° |
| 2026-05-07 19:37 | 53.70949 | 7.32208 | 36128 ft | 452 kts | 238° |
| 2026-05-07 19:37 | 53.67668 | 7.23167 | 36142 ft | 451 kts | 238° |
| 2026-05-07 19:38 | 53.64389 | 7.14146 | 36143 ft | 450 kts | 238° |
| 2026-05-07 19:38 | 53.61107 | 7.05166 | 36143 ft | 450 kts | 238° |
| 2026-05-07 19:39 | 53.57814 | 6.96189 | 36134 ft | 450 kts | 238° |
| 2026-05-07 19:39 | 53.54453 | 6.87379 | 36143 ft | 449 kts | 235° |
| 2026-05-07 19:40 | 53.50820 | 6.78838 | 36135 ft | 449 kts | 233° |
| 2026-05-07 19:40 | 53.47100 | 6.70389 | 36135 ft | 450 kts | 233° |
| 2026-05-07 19:41 | 53.43412 | 6.61909 | 36131 ft | 450 kts | 233° |
| 2026-05-07 19:41 | 53.39754 | 6.53393 | 36144 ft | 450 kts | 234° |
| 2026-05-07 19:42 | 53.36097 | 6.44873 | 36129 ft | 450 kts | 233° |
| 2026-05-07 19:42 | 53.32452 | 6.36443 | 36135 ft | 450 kts | 233° |
| 2026-05-07 19:43 | 53.28769 | 6.27977 | 36132 ft | 450 kts | 233° |
| 2026-05-07 19:43 | 53.25083 | 6.19527 | 36144 ft | 450 kts | 233° |
| 2026-05-07 19:44 | 53.21396 | 6.11074 | 36142 ft | 450 kts | 233° |
| 2026-05-07 19:44 | 53.17701 | 6.02641 | 36145 ft | 449 kts | 233° |
| 2026-05-07 19:45 | 53.14010 | 5.94244 | 36139 ft | 449 kts | 233° |
| 2026-05-07 19:45 | 53.10311 | 5.85881 | 36129 ft | 448 kts | 233° |
| 2026-05-07 19:46 | 53.06635 | 5.77584 | 36130 ft | 448 kts | 233° |
| 2026-05-07 19:46 | 53.02935 | 5.69267 | 36131 ft | 447 kts | 233° |
| 2026-05-07 19:47 | 52.99234 | 5.60977 | 36136 ft | 446 kts | 233° |
| 2026-05-07 19:47 | 52.95538 | 5.52712 | 36139 ft | 445 kts | 233° |
| 2026-05-07 19:48 | 52.91823 | 5.44443 | 36138 ft | 444 kts | 233° |
| 2026-05-07 19:48 | 52.88144 | 5.36279 | 36121 ft | 444 kts | 233° |
| 2026-05-07 19:49 | 52.84440 | 5.28083 | 36125 ft | 444 kts | 232° |
| 2026-05-07 19:49 | 52.80733 | 5.19914 | 36119 ft | 444 kts | 232° |
| 2026-05-07 19:50 | 52.77047 | 5.11815 | 36121 ft | 443 kts | 232° |
| 2026-05-07 19:50 | 52.73347 | 5.03686 | 36121 ft | 443 kts | 232° |
| 2026-05-07 19:51 | 52.69634 | 4.95560 | 36120 ft | 442 kts | 232° |
| 2026-05-07 19:51 | 52.65917 | 4.87477 | 36121 ft | 442 kts | 232° |
| 2026-05-07 19:52 | 52.62211 | 4.79408 | 36120 ft | 441 kts | 232° |
| 2026-05-07 19:52 | 52.58516 | 4.71413 | 36126 ft | 441 kts | 232° |
| 2026-05-07 19:53 | 52.54795 | 4.63405 | 36120 ft | 440 kts | 232° |
| 2026-05-07 19:53 | 52.51081 | 4.55428 | 36118 ft | 439 kts | 232° |
| 2026-05-07 19:54 | 52.47369 | 4.47454 | 36112 ft | 439 kts | 232° |
| 2026-05-07 19:54 | 52.43660 | 4.39516 | 36109 ft | 437 kts | 232° |
| 2026-05-07 19:55 | 52.39947 | 4.31618 | 36116 ft | 436 kts | 232° |
| 2026-05-07 19:55 | 52.36237 | 4.23748 | 36115 ft | 436 kts | 232° |
| 2026-05-07 19:56 | 52.32558 | 4.15961 | 36116 ft | 435 kts | 232° |
| 2026-05-07 19:56 | 52.28861 | 4.08145 | 36114 ft | 434 kts | 232° |
| 2026-05-07 19:57 | 52.25162 | 4.00359 | 36112 ft | 433 kts | 232° |
| 2026-05-07 19:57 | 52.21456 | 3.92591 | 36113 ft | 433 kts | 232° |
| 2026-05-07 19:58 | 52.17749 | 3.84845 | 36106 ft | 433 kts | 232° |
| 2026-05-07 19:58 | 52.14668 | 3.78418 | 36109 ft | 433 kts | 232° |
| 2026-05-07 19:59 | 52.10352 | 3.69436 | 36108 ft | 433 kts | 232° |
| 2026-05-07 19:59 | 52.06633 | 3.61727 | 36105 ft | 433 kts | 232° |
| 2026-05-07 20:00 | 52.03536 | 3.55331 | 36105 ft | 433 kts | 232° |
| 2026-05-07 20:00 | 51.99816 | 3.47647 | 36108 ft | 432 kts | 231° |
| 2026-05-07 20:01 | 51.96089 | 3.39980 | 36110 ft | 432 kts | 232° |
| 2026-05-07 20:01 | 51.92352 | 3.32329 | 36122 ft | 432 kts | 232° |
| 2026-05-07 20:02 | 51.88622 | 3.24712 | 36120 ft | 431 kts | 232° |
| 2026-05-07 20:02 | 51.85543 | 3.16504 | 36122 ft | 431 kts | 249° |
| 2026-05-07 20:03 | 51.84273 | 3.07061 | 36126 ft | 432 kts | 263° |
| 2026-05-07 20:03 | 51.83660 | 2.97399 | 36117 ft | 432 kts | 263° |
| 2026-05-07 20:04 | 51.83019 | 2.87738 | 36123 ft | 432 kts | 263° |
| 2026-05-07 20:04 | 51.82366 | 2.78075 | 36115 ft | 432 kts | 263° |
| 2026-05-07 20:05 | 51.81711 | 2.68412 | 36116 ft | 432 kts | 263° |
| 2026-05-07 20:05 | 51.81053 | 2.58748 | 35817 ft | 432 kts | 263° |
| 2026-05-07 20:06 | 51.80721 | 2.53919 | 35568 ft | 432 kts | 263° |
| 2026-05-07 20:06 | 51.80386 | 2.49089 | 35317 ft | 432 kts | 263° |
| 2026-05-07 20:06 | 51.80052 | 2.44325 | 35069 ft | 431 kts | 262° |
| 2026-05-07 20:06 | 51.79707 | 2.39448 | 34817 ft | 431 kts | 262° |
| 2026-05-07 20:07 | 51.79367 | 2.34704 | 34572 ft | 431 kts | 262° |
| 2026-05-07 20:07 | 51.79019 | 2.29894 | 34185 ft | 432 kts | 262° |
| 2026-05-07 20:07 | 51.78661 | 2.24976 | 33261 ft | 438 kts | 262° |
| 2026-05-07 20:07 | 51.78493 | 2.20107 | 32426 ft | 442 kts | 275° |
| 2026-05-07 20:08 | 51.79210 | 2.15339 | 32124 ft | 434 kts | 290° |
| 2026-05-07 20:08 | 51.80374 | 2.10873 | 31643 ft | 429 kts | 292° |
| 2026-05-07 20:08 | 51.81568 | 2.06480 | 31134 ft | 425 kts | 292° |
| 2026-05-07 20:08 | 51.82755 | 2.02125 | 30610 ft | 421 kts | 292° |
| 2026-05-07 20:09 | 51.83932 | 1.97822 | 30097 ft | 416 kts | 292° |
| 2026-05-07 20:09 | 51.85100 | 1.93555 | 29574 ft | 412 kts | 292° |
| 2026-05-07 20:09 | 51.86256 | 1.89332 | 29039 ft | 409 kts | 292° |
| 2026-05-07 20:10 | 51.87957 | 1.80675 | 27629 ft | 406 kts | 271° |
| 2026-05-07 20:10 | 51.87697 | 1.76153 | 26939 ft | 403 kts | 255° |
| 2026-05-07 20:10 | 51.86855 | 1.71817 | 26012 ft | 407 kts | 251° |
| 2026-05-07 20:10 | 51.85955 | 1.67487 | 24985 ft | 403 kts | 251° |
| 2026-05-07 20:11 | 51.85063 | 1.63270 | 24290 ft | 391 kts | 251° |
| 2026-05-07 20:11 | 51.84174 | 1.59097 | 23848 ft | 392 kts | 251° |
| 2026-05-07 20:11 | 51.83296 | 1.54983 | 23411 ft | 391 kts | 251° |
| 2026-05-07 20:11 | 51.82404 | 1.50804 | 22964 ft | 395 kts | 251° |
| 2026-05-07 20:12 | 51.81506 | 1.46584 | 22462 ft | 397 kts | 251° |
| 2026-05-07 20:12 | 51.80608 | 1.42359 | 21936 ft | 396 kts | 251° |
| 2026-05-07 20:12 | 51.79714 | 1.38151 | 21406 ft | 394 kts | 251° |
| 2026-05-07 20:12 | 51.78826 | 1.33972 | 20883 ft | 391 kts | 251° |
| 2026-05-07 20:13 | 51.77945 | 1.29843 | 20354 ft | 387 kts | 250° |
| 2026-05-07 20:13 | 51.77070 | 1.25768 | 19848 ft | 382 kts | 250° |
| 2026-05-07 20:13 | 51.76202 | 1.21734 | 19348 ft | 378 kts | 250° |
| 2026-05-07 20:13 | 51.75353 | 1.17800 | 18852 ft | 374 kts | 250° |
| 2026-05-07 20:14 | 51.74500 | 1.13863 | 18350 ft | 369 kts | 250° |
| 2026-05-07 20:14 | 51.73657 | 1.09974 | 17850 ft | 365 kts | 250° |
| 2026-05-07 20:14 | 51.72826 | 1.06142 | 17393 ft | 359 kts | 250° |
| 2026-05-07 20:14 | 51.72004 | 1.02358 | 16870 ft | 355 kts | 250° |
| 2026-05-07 20:15 | 51.71191 | 0.98612 | 16322 ft | 353 kts | 250° |
| 2026-05-07 20:15 | 51.70457 | 0.94845 | 15783 ft | 351 kts | 257° |
| 2026-05-07 20:15 | 51.70118 | 0.90956 | 15245 ft | 349 kts | 263° |
| 2026-05-07 20:15 | 51.69854 | 0.87072 | 14702 ft | 347 kts | 263° |
| 2026-05-07 20:16 | 51.69586 | 0.83220 | 14162 ft | 344 kts | 263° |
| 2026-05-07 20:16 | 51.69316 | 0.79396 | 13611 ft | 343 kts | 262° |
| 2026-05-07 20:16 | 51.69044 | 0.75596 | 13069 ft | 340 kts | 262° |
| 2026-05-07 20:16 | 51.68773 | 0.71818 | 12600 ft | 337 kts | 262° |
| 2026-05-07 20:17 | 51.68510 | 0.68140 | 12471 ft | 323 kts | 262° |
| 2026-05-07 20:17 | 51.68258 | 0.64610 | 12342 ft | 311 kts | 262° |
| 2026-05-07 20:17 | 51.68015 | 0.61201 | 12215 ft | 301 kts | 262° |
| 2026-05-07 20:17 | 51.67781 | 0.57921 | 11795 ft | 291 kts | 262° |
| 2026-05-07 20:18 | 51.67550 | 0.54743 | 11190 ft | 287 kts | 262° |
| 2026-05-07 20:18 | 51.67318 | 0.51532 | 10703 ft | 289 kts | 262° |
| 2026-05-07 20:18 | 51.67083 | 0.48331 | 10414 ft | 287 kts | 262° |
| 2026-05-07 20:18 | 51.66847 | 0.45157 | 10085 ft | 284 kts | 262° |
| 2026-05-07 20:19 | 51.66615 | 0.42004 | 9736 ft | 284 kts | 262° |
| 2026-05-07 20:19 | 51.66382 | 0.38843 | 9453 ft | 282 kts | 262° |
| 2026-05-07 20:19 | 51.66154 | 0.35753 | 9327 ft | 273 kts | 263° |
| 2026-05-07 20:19 | 51.65934 | 0.32749 | 9200 ft | 267 kts | 263° |
| 2026-05-07 20:20 | 51.65718 | 0.29828 | 9073 ft | 258 kts | 263° |
| 2026-05-07 20:20 | 51.65511 | 0.27024 | 8808 ft | 248 kts | 263° |
| 2026-05-07 20:20 | 51.65309 | 0.24294 | 8487 ft | 247 kts | 263° |
| 2026-05-07 20:20 | 51.65101 | 0.21603 | 8249 ft | 245 kts | 263° |
| 2026-05-07 20:21 | 51.64897 | 0.18901 | 8103 ft | 242 kts | 263° |
| 2026-05-07 20:21 | 51.64691 | 0.16204 | 8082 ft | 244 kts | 263° |
| 2026-05-07 20:21 | 51.64502 | 0.13470 | 8082 ft | 246 kts | 264° |
| 2026-05-07 20:21 | 51.64384 | 0.10735 | 8081 ft | 245 kts | 266° |
| 2026-05-07 20:22 | 51.64285 | 0.08000 | 8081 ft | 244 kts | 266° |
| 2026-05-07 20:22 | 51.64187 | 0.05271 | 8076 ft | 244 kts | 266° |
| 2026-05-07 20:22 | 51.64091 | 0.02621 | 8078 ft | 245 kts | 266° |
| 2026-05-07 20:22 | 51.63994 | -0.00127 | 8077 ft | 246 kts | 266° |
| 2026-05-07 20:23 | 51.63897 | -0.02830 | 8081 ft | 245 kts | 266° |
| 2026-05-07 20:23 | 51.63799 | -0.05449 | 8083 ft | 244 kts | 266° |
| 2026-05-07 20:23 | 51.63695 | -0.08166 | 8079 ft | 244 kts | 266° |
| 2026-05-07 20:23 | 51.63597 | -0.10887 | 8081 ft | 244 kts | 266° |
| 2026-05-07 20:24 | 51.63492 | -0.13598 | 7933 ft | 240 kts | 266° |
| 2026-05-07 20:24 | 51.63393 | -0.16285 | 7599 ft | 241 kts | 266° |
| 2026-05-07 20:24 | 51.63294 | -0.18974 | 7302 ft | 240 kts | 266° |
| 2026-05-07 20:24 | 51.63198 | -0.21649 | 7108 ft | 238 kts | 266° |
| 2026-05-07 20:25 | 51.63102 | -0.24327 | 7080 ft | 240 kts | 266° |
| 2026-05-07 20:25 | 51.63007 | -0.27015 | 7082 ft | 241 kts | 266° |
| 2026-05-07 20:25 | 51.62912 | -0.29700 | 7082 ft | 241 kts | 266° |
| 2026-05-07 20:25 | 51.62818 | -0.32389 | 7082 ft | 241 kts | 266° |
| 2026-05-07 20:26 | 51.62723 | -0.35081 | 7082 ft | 241 kts | 266° |
| 2026-05-07 20:26 | 51.62627 | -0.37771 | 7082 ft | 241 kts | 266° |
| 2026-05-07 20:26 | 51.62531 | -0.40462 | 7080 ft | 241 kts | 266° |
| 2026-05-07 20:26 | 51.62435 | -0.43119 | 7081 ft | 241 kts | 266° |
| 2026-05-07 20:27 | 51.62339 | -0.45805 | 7083 ft | 240 kts | 266° |
| 2026-05-07 20:27 | 51.62219 | -0.48491 | 7082 ft | 240 kts | 260° |
| 2026-05-07 20:27 | 51.61804 | -0.51084 | 6965 ft | 238 kts | 252° |
| 2026-05-07 20:27 | 51.61293 | -0.53621 | 6668 ft | 238 kts | 251° |
| 2026-05-07 20:28 | 51.60774 | -0.56136 | 6375 ft | 237 kts | 251° |
| 2026-05-07 20:28 | 51.60255 | -0.58651 | 6087 ft | 236 kts | 251° |
| 2026-05-07 20:28 | 51.59740 | -0.61150 | 5811 ft | 235 kts | 251° |
| 2026-05-07 20:28 | 51.59228 | -0.63646 | 5511 ft | 234 kts | 251° |
| 2026-05-07 20:29 | 51.58720 | -0.66140 | 5215 ft | 234 kts | 251° |
| 2026-05-07 20:29 | 51.58219 | -0.68613 | 4761 ft | 233 kts | 251° |
| 2026-05-07 20:29 | 51.57717 | -0.71105 | 4359 ft | 234 kts | 251° |
| 2026-05-07 20:29 | 51.57222 | -0.73586 | 4088 ft | 232 kts | 251° |
| 2026-05-07 20:30 | 51.56720 | -0.76050 | 3989 ft | 232 kts | 246° |
| 2026-05-07 20:30 | 51.55766 | -0.78094 | 4002 ft | 230 kts | 214° |
| 2026-05-07 20:30 | 51.54298 | -0.78992 | 3996 ft | 228 kts | 186° |
| 2026-05-07 20:30 | 51.52731 | -0.79197 | 3989 ft | 221 kts | 181° |
| 2026-05-07 20:31 | 51.51264 | -0.79298 | 3996 ft | 206 kts | 181° |
| 2026-05-07 20:31 | 51.49884 | -0.79268 | 3961 ft | 192 kts | 165° |
| 2026-05-07 20:31 | 51.48697 | -0.78392 | 3752 ft | 189 kts | 141° |
| 2026-05-07 20:31 | 51.47875 | -0.76767 | 3482 ft | 191 kts | 115° |
| 2026-05-07 20:32 | 51.47606 | -0.74704 | 3249 ft | 191 kts | 91° |
| 2026-05-07 20:32 | 51.47620 | -0.72594 | 3027 ft | 187 kts | 90° |
| 2026-05-07 20:32 | 51.47637 | -0.70547 | 2764 ft | 179 kts | 91° |
| 2026-05-07 20:32 | 51.47649 | -0.68616 | 2518 ft | 167 kts | 91° |
| 2026-05-07 20:33 | 51.47660 | -0.66781 | 2315 ft | 163 kts | 91° |
| 2026-05-07 20:33 | 51.47670 | -0.64990 | 2096 ft | 160 kts | 91° |
| 2026-05-07 20:33 | 51.47679 | -0.63207 | 1887 ft | 159 kts | 91° |
| 2026-05-07 20:33 | 51.47688 | -0.61433 | 1684 ft | 158 kts | 91° |
| 2026-05-07 20:34 | 51.47698 | -0.59678 | 1478 ft | 158 kts | 91° |
| 2026-05-07 20:34 | 51.47706 | -0.57990 | 1262 ft | 143 kts | 91° |
| 2026-05-07 20:34 | 51.47714 | -0.56436 | 1078 ft | 136 kts | 91° |
| 2026-05-07 20:34 | 51.47721 | -0.54933 | 902 ft | 134 kts | 91° |
| 2026-05-07 20:35 | 51.47731 | -0.53463 | 730 ft | 133 kts | 90° |
| 2026-05-07 20:35 | 51.47737 | -0.51992 | 553 ft | 133 kts | 93° |
| 2026-05-07 20:35 | 51.47743 | -0.50511 | 383 ft | 132 kts | 89° |
| 2026-05-07 20:35 | 51.47760 | -0.49038 | 206 ft | 132 kts | 95° |
| 2026-05-07 20:36 | 51.47761 | -0.47597 | 108 ft | 119 kts | 91° |